Airfield :
LOGIN :

Register | Disclaimer

   EN    FR    IT 

 










Legend :    VFR   Marginal VFR   IFR   Intensive IFR   Very Intensive IFR
Visi :
Ceiling :
>= 8 km
>= 3000ft
5 to 8 km
1000 to 3000 ft
1500m to 5 km
500 to 1000 ft
800 to 1500m
200 to 500 ft
< 800m
< 200 ft
Symbols :   Thunderstorms  Fog  Heavy snow  Heavy precipitations  Wind > 20 kt
SIGMETs :     Misc.  Thunderstorms  Icing  Turbulence  Mountain Waves  Volcanic Ashes






- Airport Elevation : 265 ft


LFMC - Le Luc

CURRENT METAR :
  • 070730Z AUTO VRB02KT 9999 ////// 27/13 Q1016

EXPIRED METARs :
  • 070700Z AUTO VRB03KT 9999 ////// 25/13 Q1016
  • 070630Z AUTO 28006KT 250V310 9999 ////// 24/12 Q1016
  • 070600Z AUTO 28004KT 240V330 9999 ////// 23/11 Q1016
  • 070530Z AUTO VRB02KT 9999 ////// 21/13 Q1016
  • 070500Z AUTO 26007KT 9999 ////// 21/11 Q1016

TAF N/A



MET'MAP, your aeronautical weather chart ! - Copyright ORBIFLY December 2007 - Disclaimer

ORBIFLY MET'MAP TEAM :

Programming & Development : Alexandra Zaïnal
Original concept : Baudouin d'Aumeries
Technical & hardware support : Manuel Goepfert
Assistance : Marc-Olivier Méhu




SOURCES & CREDITS :

   NOAA